Terminal Aerodrome Forecast
Issued by NWS

Home | Current Version | Previous Version | Text Only | Print | Product List | Glossary On
Versions: 1 2 3 4 5 6 7 8 9 10 11 12 13 14 15 16 17 18 19
000
FTUS46 KSGX 241300 AAB
TAFCRQ
TAF AMD
KCRQ 241350Z 2414/2512 VRB04KT 1/4SM FG BKN003
     FM241430 VRB04KT 3SM BR BKN003
     FM241530 VRB04KT P6SM FEW250
     FM242000 25010KT P6SM SCT250
     FM250200 VRB04KT P6SM SCT250=

USA.gov is the U.S. government's official web portal to all federal, state and local government web resources and services.